createdAt,value
2019-02-14T00:00:48.362Z,1.00
2019-02-14T00:03:16.160Z,1.00
2019-02-14T00:05:43.501Z,1.00
2019-02-14T00:08:10.842Z,0.90
2019-02-14T00:10:38.345Z,0.70
2019-02-14T00:13:05.636Z,0.60
2019-02-14T00:15:33.436Z,0.60
2019-02-14T00:18:00.791Z,0.50
2019-02-14T00:20:28.145Z,0.60
2019-02-14T00:22:55.744Z,0.60
2019-02-14T00:25:23.181Z,0.60
2019-02-14T00:27:50.313Z,0.50
2019-02-14T00:30:17.720Z,0.60
2019-02-14T00:32:45.428Z,0.60
2019-02-14T00:35:12.457Z,0.70
2019-02-14T00:37:40.350Z,0.70
2019-02-14T00:40:07.770Z,0.70
2019-02-14T00:42:35.149Z,0.60
2019-02-14T00:45:02.729Z,0.60
2019-02-14T00:47:30.064Z,0.70
2019-02-14T00:49:57.519Z,0.60
2019-02-14T00:52:24.901Z,0.60
2019-02-14T00:54:52.549Z,0.60
2019-02-14T00:57:19.987Z,0.40
2019-02-14T00:59:47.839Z,0.30
2019-02-14T01:02:15.322Z,0.10
2019-02-14T01:04:42.951Z,0.10
2019-02-14T01:07:09.965Z,0.20
2019-02-14T01:09:37.602Z,0.20
2019-02-14T01:12:05.490Z,0.30
2019-02-14T01:14:32.818Z,0.30
2019-02-14T01:17:00.569Z,0.30
2019-02-14T01:19:27.774Z,0.30
2019-02-14T01:21:54.837Z,0.20
2019-02-14T01:24:22.434Z,0.20
2019-02-14T01:26:50.307Z,0.20
2019-02-14T01:29:17.142Z,0.10
2019-02-14T01:31:44.833Z,0.20
2019-02-14T01:34:12.269Z,0.20
2019-02-14T01:36:39.865Z,0.30
2019-02-14T01:39:07.342Z,0.40
2019-02-14T01:41:35.025Z,0.40
2019-02-14T01:44:02.111Z,0.40
2019-02-14T01:46:29.712Z,0.50
2019-02-14T01:48:56.805Z,0.50
2019-02-14T01:51:23.869Z,0.40
2019-02-14T01:53:51.681Z,0.40
2019-02-14T01:56:19.240Z,0.40
2019-02-14T01:58:46.809Z,0.40
2019-02-14T02:01:13.878Z,0.50
2019-02-14T02:03:41.177Z,0.40
2019-02-14T02:06:08.581Z,0.30
2019-02-14T02:08:35.968Z,0.30
2019-02-14T02:11:04.045Z,0.30
2019-02-14T02:13:31.784Z,0.30
2019-02-14T02:15:59.568Z,0.10
2019-02-14T02:18:27.488Z,0.10
2019-02-14T02:20:55.091Z,0.20
2019-02-14T02:23:22.151Z,0.20
2019-02-14T02:25:49.559Z,0.20
2019-02-14T02:28:17.115Z,0.00
2019-02-14T02:30:43.934Z,0.00
2019-02-14T02:33:11.229Z,0.10
2019-02-14T02:35:38.272Z,0.10
2019-02-14T02:38:05.299Z,0.10
2019-02-14T02:40:33.163Z,0.10
2019-02-14T02:43:00.215Z,0.10
2019-02-14T02:45:27.331Z,0.00
2019-02-14T02:47:54.617Z,-0.10
2019-02-14T02:50:22.259Z,-0.20
2019-02-14T02:52:49.605Z,-0.10
2019-02-14T02:55:17.039Z,0.00
2019-02-14T02:57:44.328Z,-0.10
2019-02-14T03:00:13.928Z,0.00
2019-02-14T03:02:41.141Z,-0.30
2019-02-14T03:05:09.625Z,-0.30
2019-02-14T03:07:36.842Z,-0.20
2019-02-14T03:10:04.945Z,-0.20
2019-02-14T03:12:32.224Z,-0.10
2019-02-14T03:14:59.767Z,0.00
2019-02-14T03:17:27.118Z,-0.20
2019-02-14T03:19:54.440Z,-0.20
2019-02-14T03:22:21.840Z,-0.20
2019-02-14T03:24:49.227Z,-0.10
2019-02-14T03:27:16.759Z,-0.10
2019-02-14T03:29:44.048Z,-0.10
2019-02-14T03:32:11.617Z,-0.10
2019-02-14T03:34:38.908Z,0.00
2019-02-14T03:37:06.215Z,-0.10
2019-02-14T03:39:33.578Z,-0.10
2019-02-14T03:42:01.092Z,-0.10
2019-02-14T03:44:28.504Z,-0.20
2019-02-14T03:46:56.095Z,-0.30
2019-02-14T03:49:23.771Z,-0.30
2019-02-14T03:51:51.312Z,-0.30
2019-02-14T03:54:19.045Z,-0.20
2019-02-14T03:56:46.813Z,-0.20
2019-02-14T03:59:14.001Z,-0.20
2019-02-14T04:01:41.770Z,-0.20
2019-02-14T04:04:09.432Z,-0.20
2019-02-14T04:06:37.000Z,-0.30
2019-02-14T04:09:06.701Z,-0.30
2019-02-14T04:11:34.070Z,-0.40
2019-02-14T04:14:01.753Z,-0.40
2019-02-14T04:16:28.929Z,-0.40
2019-02-14T04:18:56.513Z,-0.30
2019-02-14T04:21:23.813Z,-0.30
2019-02-14T04:23:51.145Z,-0.30
2019-02-14T04:26:18.717Z,-0.40
2019-02-14T04:28:45.785Z,-0.40
2019-02-14T04:31:13.629Z,-0.40
2019-02-14T04:33:40.704Z,-0.30
2019-02-14T04:36:08.410Z,-0.20
2019-02-14T04:38:35.783Z,-0.20
2019-02-14T04:41:03.202Z,-0.30
2019-02-14T04:43:30.791Z,-0.30
2019-02-14T04:45:58.390Z,-0.20
2019-02-14T04:48:25.844Z,-0.20
2019-02-14T04:50:53.433Z,-0.20
2019-02-14T04:53:20.745Z,-0.30
2019-02-14T04:55:48.081Z,-0.30
2019-02-14T04:58:15.673Z,-0.30
2019-02-14T05:00:43.229Z,-0.30
2019-02-14T05:03:10.818Z,-0.30
2019-02-14T05:05:38.670Z,-0.20
2019-02-14T05:08:05.857Z,-0.20
2019-02-14T05:10:32.915Z,-0.20
2019-02-14T05:13:00.529Z,-0.30
2019-02-14T05:15:27.903Z,-0.40
2019-02-14T05:17:55.381Z,-0.40
2019-02-14T05:20:22.714Z,-0.40
2019-02-14T05:22:50.446Z,-0.30
2019-02-14T05:25:17.526Z,-0.20
2019-02-14T05:27:44.945Z,-0.30
2019-02-14T05:30:12.433Z,-0.40
2019-02-14T05:32:39.911Z,-0.40
2019-02-14T05:35:07.849Z,-0.50
2019-02-14T05:37:35.436Z,-0.50
2019-02-14T05:40:02.764Z,-0.60
2019-02-14T05:42:30.411Z,-0.60
2019-02-14T05:44:58.224Z,-0.60
2019-02-14T05:47:25.988Z,-0.70
2019-02-14T05:49:53.437Z,-0.90
2019-02-14T05:52:21.222Z,-1.00
2019-02-14T05:54:48.569Z,-1.00
2019-02-14T05:57:15.881Z,-0.90
2019-02-14T05:59:43.308Z,-0.90
2019-02-14T06:02:10.749Z,-1.00
2019-02-14T06:04:38.316Z,-1.00
2019-02-14T06:07:05.766Z,-1.00
2019-02-14T06:09:33.098Z,-1.00
2019-02-14T06:12:00.961Z,-1.00
2019-02-14T06:14:28.145Z,-0.90
2019-02-14T06:16:55.724Z,-0.90
2019-02-14T06:19:23.065Z,-0.90
2019-02-14T06:21:50.453Z,-0.90
2019-02-14T06:24:17.776Z,-0.80
2019-02-14T06:26:44.689Z,-0.80
2019-02-14T06:29:12.619Z,-0.80
2019-02-14T06:31:39.937Z,-0.90
2019-02-14T06:34:07.497Z,-0.90
2019-02-14T06:36:34.841Z,-0.90
2019-02-14T06:39:02.782Z,-0.80
2019-02-14T06:41:30.406Z,-0.90
2019-02-14T06:43:57.699Z,-0.80
2019-02-14T06:46:25.289Z,-1.00
2019-02-14T06:48:52.873Z,-1.00
2019-02-14T06:51:20.221Z,-1.00
2019-02-14T06:53:47.817Z,-1.10
2019-02-14T06:56:15.250Z,-1.10
2019-02-14T06:58:42.616Z,-1.10
2019-02-14T07:01:10.117Z,-1.00
2019-02-14T07:03:37.723Z,-0.90
2019-02-14T07:06:05.149Z,-0.90
2019-02-14T07:08:32.739Z,-0.80
2019-02-14T07:11:00.073Z,-0.80
2019-02-14T07:13:27.773Z,-0.70
2019-02-14T07:15:54.781Z,-0.80
2019-02-14T07:18:22.387Z,-0.80
2019-02-14T07:20:49.556Z,-0.80
2019-02-14T07:23:16.654Z,-0.80
2019-02-14T07:25:43.745Z,-0.80
2019-02-14T07:28:10.816Z,-0.70
2019-02-14T07:30:38.013Z,-0.70
2019-02-14T07:33:05.405Z,-0.60
2019-02-14T07:35:33.113Z,-0.60
2019-02-14T07:38:00.436Z,-0.70
2019-02-14T07:40:29.658Z,-0.60
2019-02-14T07:42:57.409Z,-0.50
2019-02-14T07:45:25.183Z,-0.50
2019-02-14T07:47:52.484Z,-0.40
2019-02-14T07:50:19.913Z,-0.30
2019-02-14T07:52:47.990Z,-0.60
2019-02-14T07:55:15.746Z,-0.50
2019-02-14T07:57:43.480Z,-0.50
2019-02-14T08:00:11.653Z,-0.40
2019-02-14T08:02:38.682Z,-0.30
2019-02-14T08:05:06.442Z,-0.10
2019-02-14T08:07:36.168Z,0.00
2019-02-14T08:10:03.986Z,0.00
2019-02-14T08:12:31.733Z,0.00
2019-02-14T08:14:59.430Z,0.10
2019-02-14T08:17:26.879Z,0.20
2019-02-14T08:19:54.254Z,0.30
2019-02-14T08:22:21.678Z,0.30
2019-02-14T08:24:49.112Z,0.30
2019-02-14T08:27:16.464Z,0.20
2019-02-14T08:29:44.082Z,0.20
2019-02-14T08:32:11.814Z,0.30
2019-02-14T08:34:39.165Z,0.30
2019-02-14T08:37:05.973Z,0.20
2019-02-14T08:39:33.784Z,0.10
2019-02-14T08:42:00.864Z,0.10
2019-02-14T08:44:27.929Z,0.30
2019-02-14T08:46:55.004Z,0.40
2019-02-14T08:49:22.089Z,0.50
2019-02-14T08:51:49.673Z,0.40
2019-02-14T08:54:17.593Z,0.50
2019-02-14T08:56:44.644Z,0.50
2019-02-14T08:59:12.489Z,0.50
2019-02-14T09:01:39.821Z,0.50
2019-02-14T09:04:07.457Z,0.60
2019-02-14T09:06:34.894Z,0.70
2019-02-14T09:09:02.945Z,0.80
2019-02-14T09:11:30.121Z,0.90
2019-02-14T09:13:57.206Z,1.10
2019-02-14T09:16:24.906Z,1.10
2019-02-14T09:18:52.118Z,1.20
2019-02-14T09:21:19.502Z,1.20
2019-02-14T09:23:47.196Z,1.10
2019-02-14T09:26:14.025Z,1.10
2019-02-14T09:28:41.592Z,1.20
2019-02-14T09:31:09.026Z,1.10
2019-02-14T09:33:36.370Z,1.20
2019-02-14T09:36:04.160Z,1.30
2019-02-14T09:38:31.752Z,1.40
2019-02-14T09:40:59.335Z,1.50
2019-02-14T09:43:29.874Z,1.60
2019-02-14T09:45:56.049Z,1.70
2019-02-14T09:48:23.995Z,1.80
2019-02-14T09:50:51.437Z,1.90
2019-02-14T09:53:18.751Z,2.00
2019-02-14T09:55:46.371Z,2.00
2019-02-14T09:58:14.061Z,2.10
2019-02-14T10:00:41.368Z,2.10
2019-02-14T10:03:08.821Z,2.10
2019-02-14T10:05:36.333Z,2.20
2019-02-14T10:08:12.185Z,2.10
2019-02-14T10:10:33.393Z,2.00
2019-02-14T10:13:00.477Z,2.20
2019-02-14T10:15:27.900Z,2.10
2019-02-14T10:17:55.265Z,2.10
2019-02-14T10:20:22.354Z,2.10
2019-02-14T10:22:50.106Z,2.20
2019-02-14T10:25:17.926Z,2.30
2019-02-14T10:27:45.390Z,2.30
2019-02-14T10:30:14.569Z,2.40
2019-02-14T10:32:42.442Z,2.40
2019-02-14T10:35:09.976Z,2.40
2019-02-14T10:37:37.434Z,2.50
2019-02-14T10:40:06.191Z,2.50
2019-02-14T10:42:33.807Z,2.50
2019-02-14T10:45:01.419Z,2.60
2019-02-14T10:47:29.114Z,2.60
2019-02-14T10:49:57.517Z,2.60
2019-02-14T10:52:24.607Z,2.60
2019-02-14T10:54:52.479Z,2.60
2019-02-14T10:57:20.097Z,2.70
2019-02-14T10:59:47.854Z,2.70
2019-02-14T11:02:15.705Z,2.70
2019-02-14T11:04:43.260Z,2.80
2019-02-14T11:07:11.178Z,2.80
2019-02-14T11:09:38.817Z,2.80
2019-02-14T11:12:06.277Z,2.90
2019-02-14T11:14:34.193Z,2.90
2019-02-14T11:17:01.898Z,2.80
2019-02-14T11:19:29.318Z,2.80
2019-02-14T11:21:56.402Z,2.90
2019-02-14T11:24:24.090Z,2.90
2019-02-14T11:26:51.286Z,2.90
2019-02-14T11:29:18.382Z,2.90
2019-02-14T11:31:45.981Z,2.90
2019-02-14T11:34:13.427Z,3.00
2019-02-14T11:36:40.782Z,3.00
2019-02-14T11:39:08.777Z,3.10
2019-02-14T11:41:36.127Z,3.20
2019-02-14T11:44:03.334Z,3.30
2019-02-14T11:46:30.913Z,3.30
2019-02-14T11:48:58.483Z,3.40
2019-02-14T11:51:25.632Z,3.40
2019-02-14T11:53:52.962Z,3.50
2019-02-14T11:56:21.106Z,3.50
2019-02-14T11:58:48.722Z,3.60
2019-02-14T12:01:16.337Z,3.60
2019-02-14T12:03:44.193Z,3.70
2019-02-14T12:06:17.297Z,3.70
2019-02-14T12:08:53.021Z,3.70
2019-02-14T12:11:10.674Z,3.80
2019-02-14T12:13:39.472Z,3.90
2019-02-14T12:16:07.113Z,3.90
2019-02-14T12:18:34.548Z,3.90
2019-02-14T12:21:01.984Z,4.00
2019-02-14T12:23:29.694Z,4.00
2019-02-14T12:25:56.881Z,4.10
2019-02-14T12:28:24.237Z,4.10
2019-02-14T12:30:51.423Z,4.20
2019-02-14T12:33:19.329Z,4.30
2019-02-14T12:35:46.981Z,4.40
2019-02-14T12:38:14.422Z,4.50
2019-02-14T12:40:42.132Z,4.60
2019-02-14T12:43:09.849Z,4.70
2019-02-14T12:45:37.273Z,4.80
2019-02-14T12:48:04.423Z,4.80
2019-02-14T12:50:31.775Z,4.80
2019-02-14T12:52:59.501Z,4.80
2019-02-14T12:55:27.540Z,4.80
2019-02-14T12:57:54.721Z,4.80
2019-02-14T13:00:22.228Z,4.80
2019-02-14T13:02:49.674Z,4.90
2019-02-14T13:05:17.133Z,4.90
2019-02-14T13:07:45.069Z,4.90
2019-02-14T13:10:12.470Z,4.90
2019-02-14T13:12:40.202Z,4.90
2019-02-14T13:15:09.970Z,4.90
2019-02-14T13:17:37.615Z,4.90
2019-02-14T13:20:05.068Z,4.90
2019-02-14T13:22:32.626Z,4.90
2019-02-14T13:25:00.594Z,4.90
2019-02-14T13:27:28.256Z,4.90
2019-02-14T13:29:55.323Z,4.80
2019-02-14T13:32:22.907Z,4.90
2019-02-14T13:34:50.262Z,4.90
2019-02-14T13:37:17.849Z,4.90
2019-02-14T13:39:45.065Z,5.00
2019-02-14T13:42:12.438Z,5.00
2019-02-14T13:44:40.344Z,5.00
2019-02-14T13:47:08.088Z,5.10
2019-02-14T13:49:34.889Z,5.20
2019-02-14T13:52:02.520Z,5.30
2019-02-14T13:54:30.105Z,5.40
2019-02-14T13:56:57.481Z,5.40
2019-02-14T13:59:25.208Z,5.60
2019-02-14T14:01:52.954Z,5.50
2019-02-14T14:04:20.618Z,5.60
2019-02-14T14:06:48.214Z,5.70
2019-02-14T14:09:15.815Z,5.90
2019-02-14T14:11:43.247Z,5.90
2019-02-14T14:14:10.430Z,5.90
2019-02-14T14:16:38.028Z,6.00
2019-02-14T14:19:06.566Z,6.00
2019-02-14T14:21:34.205Z,6.00
2019-02-14T14:24:01.550Z,6.00
2019-02-14T14:26:29.130Z,6.00
2019-02-14T14:28:56.498Z,6.10
2019-02-14T14:31:23.632Z,6.10
2019-02-14T14:33:51.185Z,6.20
2019-02-14T14:36:18.337Z,6.20
2019-02-14T14:38:45.720Z,6.20
2019-02-14T14:41:12.797Z,6.20
2019-02-14T14:44:02.657Z,6.20
2019-02-14T14:46:33.679Z,6.20
2019-02-14T14:49:01.285Z,6.30
2019-02-14T14:51:28.749Z,6.40
2019-02-14T14:53:56.478Z,6.40
2019-02-14T14:56:24.072Z,6.50
2019-02-14T14:58:51.992Z,6.50
2019-02-14T15:01:19.074Z,6.60
2019-02-14T15:03:46.425Z,6.60
2019-02-14T15:06:14.137Z,6.70
2019-02-14T15:08:41.725Z,6.80
2019-02-14T15:11:09.501Z,6.80
2019-02-14T15:13:36.833Z,6.90
2019-02-14T15:16:04.925Z,6.90
2019-02-14T15:18:32.869Z,6.90
2019-02-14T15:21:00.246Z,7.00
2019-02-14T15:23:27.696Z,6.90
2019-02-14T15:25:55.254Z,6.90
2019-02-14T15:28:22.965Z,6.90
2019-02-14T15:30:50.172Z,6.90
2019-02-14T15:33:17.238Z,6.90
2019-02-14T15:35:45.108Z,6.90
2019-02-14T15:38:12.463Z,6.80
2019-02-14T15:40:39.807Z,6.90
2019-02-14T15:43:07.405Z,6.90
2019-02-14T15:45:34.491Z,6.90
2019-02-14T15:48:02.022Z,7.00
2019-02-14T15:50:29.926Z,7.00
2019-02-14T15:52:58.364Z,7.00
2019-02-14T15:55:25.457Z,7.00
2019-02-14T15:57:53.111Z,7.00
2019-02-14T16:00:21.112Z,7.00
2019-02-14T16:02:50.323Z,6.90
2019-02-14T16:05:19.094Z,6.90
2019-02-14T16:07:46.745Z,6.90
2019-02-14T16:10:18.478Z,6.80
2019-02-14T16:12:45.824Z,6.70
2019-02-14T16:15:13.734Z,6.40
2019-02-14T16:17:41.319Z,6.30
2019-02-14T16:20:08.635Z,6.30
2019-02-14T16:22:36.214Z,6.20
2019-02-14T16:25:04.700Z,6.20
2019-02-14T16:27:33.242Z,6.10
2019-02-14T16:30:00.568Z,6.10
2019-02-14T16:32:27.760Z,6.00
2019-02-14T16:34:55.401Z,6.00
2019-02-14T16:37:23.195Z,5.90
2019-02-14T16:39:53.703Z,5.80
2019-02-14T16:42:20.451Z,5.50
2019-02-14T16:44:47.517Z,5.50
2019-02-14T16:47:15.134Z,5.50
2019-02-14T16:49:42.228Z,5.20
2019-02-14T16:52:09.942Z,4.90
2019-02-14T16:54:37.668Z,4.70
2019-02-14T16:57:07.242Z,4.50
2019-02-14T16:59:34.933Z,4.60
2019-02-14T17:02:02.350Z,4.60
2019-02-14T17:04:29.549Z,4.50
2019-02-14T17:06:57.506Z,4.30
2019-02-14T17:09:25.513Z,4.20
2019-02-14T17:11:53.764Z,4.20
2019-02-14T17:14:21.364Z,4.10
2019-02-14T17:16:49.149Z,4.10
2019-02-14T17:19:17.028Z,4.10
2019-02-14T17:21:44.369Z,4.00
2019-02-14T17:24:11.989Z,4.00
2019-02-14T17:26:39.338Z,4.00
2019-02-14T17:29:06.548Z,4.00
2019-02-14T17:31:34.340Z,3.90
2019-02-14T17:34:02.221Z,3.60
2019-02-14T17:36:29.934Z,3.30
2019-02-14T17:38:57.739Z,3.20
2019-02-14T17:41:25.574Z,3.10
2019-02-14T17:43:53.560Z,3.20
2019-02-14T17:46:21.214Z,3.20
2019-02-14T17:48:49.050Z,3.30
2019-02-14T17:51:16.369Z,3.50
2019-02-14T17:53:44.461Z,3.40
2019-02-14T17:56:12.195Z,3.30
2019-02-14T17:58:39.526Z,3.40
2019-02-14T18:01:07.239Z,3.40
2019-02-14T18:03:34.852Z,3.60
2019-02-14T18:06:02.458Z,3.70
2019-02-14T18:08:29.534Z,3.80
2019-02-14T18:10:57.181Z,3.80
2019-02-14T18:13:24.870Z,3.70
2019-02-14T18:15:51.821Z,3.70
2019-02-14T18:18:19.625Z,3.70
2019-02-14T18:20:47.306Z,3.70
2019-02-14T18:23:15.063Z,3.50
2019-02-14T18:25:42.992Z,3.60
2019-02-14T18:28:10.773Z,3.60
2019-02-14T18:30:38.146Z,3.60
2019-02-14T18:33:05.875Z,3.50
2019-02-14T18:35:33.515Z,3.50
2019-02-14T18:38:01.324Z,3.40
2019-02-14T18:40:29.166Z,3.40
2019-02-14T18:42:57.112Z,3.40
2019-02-14T18:45:24.894Z,3.30
2019-02-14T18:47:52.233Z,2.90
2019-02-14T18:50:20.084Z,2.80
2019-02-14T18:52:48.440Z,2.60
2019-02-14T18:55:18.307Z,2.50
2019-02-14T18:57:46.489Z,2.60
2019-02-14T19:00:14.469Z,2.40
2019-02-14T19:02:41.899Z,2.20
2019-02-14T19:05:09.976Z,2.20
2019-02-14T19:07:37.917Z,2.20
2019-02-14T19:10:05.749Z,2.30
2019-02-14T19:12:33.732Z,2.20
2019-02-14T19:15:01.806Z,2.20
2019-02-14T19:17:29.085Z,2.30
2019-02-14T19:19:56.576Z,2.30
2019-02-14T19:22:24.193Z,2.20
2019-02-14T19:24:52.072Z,2.30
2019-02-14T19:27:19.885Z,2.50
2019-02-14T19:29:47.857Z,2.50
2019-02-14T19:32:14.970Z,2.50
2019-02-14T19:34:42.937Z,2.20
2019-02-14T19:37:10.719Z,2.10
2019-02-14T19:39:38.098Z,2.10
2019-02-14T19:42:06.079Z,2.00
2019-02-14T19:44:34.268Z,2.10
2019-02-14T19:47:02.181Z,2.20
2019-02-14T19:49:29.473Z,2.20
2019-02-14T19:51:57.131Z,2.00
2019-02-14T19:54:24.966Z,1.80
2019-02-14T19:56:52.772Z,1.70
2019-02-14T19:59:20.407Z,1.90
2019-02-14T20:01:48.617Z,1.80
2019-02-14T20:04:15.980Z,1.70
2019-02-14T20:06:43.673Z,1.70
2019-02-14T20:09:12.409Z,1.70
2019-02-14T20:11:39.719Z,1.70
2019-02-14T20:14:07.949Z,1.50
2019-02-14T20:16:35.342Z,1.60
2019-02-14T20:19:02.893Z,1.80
2019-02-14T20:21:30.622Z,1.90
2019-02-14T20:23:59.534Z,1.80
2019-02-14T20:26:27.115Z,1.90
2019-02-14T20:28:54.113Z,1.80
2019-02-14T20:31:21.745Z,1.60
2019-02-14T20:33:48.727Z,1.40
2019-02-14T20:36:15.848Z,1.40
2019-02-14T20:38:43.685Z,1.50
2019-02-14T20:41:11.647Z,1.50
2019-02-14T20:43:39.862Z,1.50
2019-02-14T20:46:07.832Z,1.40
2019-02-14T20:48:35.583Z,1.50
2019-02-14T20:51:02.788Z,1.50
2019-02-14T20:53:30.328Z,1.40
2019-02-14T20:55:58.277Z,1.30
2019-02-14T20:58:26.333Z,1.30
2019-02-14T21:00:54.319Z,1.40
2019-02-14T21:03:22.465Z,1.40
2019-02-14T21:05:49.957Z,1.20
2019-02-14T21:08:17.068Z,1.30
2019-02-14T21:10:45.230Z,1.40
2019-02-14T21:13:13.169Z,1.50
2019-02-14T21:15:40.698Z,1.50
2019-02-14T21:18:08.431Z,1.30
2019-02-14T21:20:36.265Z,1.30
2019-02-14T21:23:03.864Z,1.40
2019-02-14T21:25:31.644Z,1.30
2019-02-14T21:27:59.198Z,1.30
2019-02-14T21:30:26.871Z,1.40
2019-02-14T21:32:55.025Z,1.40
2019-02-14T21:35:21.860Z,1.30
2019-02-14T21:37:49.807Z,1.30
2019-02-14T21:40:16.940Z,1.30
2019-02-14T21:42:44.415Z,1.30
2019-02-14T21:45:11.675Z,1.50
2019-02-14T21:47:39.218Z,1.50
2019-02-14T21:50:07.830Z,1.60
2019-02-14T21:52:35.166Z,1.50
2019-02-14T21:55:02.970Z,1.50
2019-02-14T21:57:30.771Z,1.50
2019-02-14T21:59:58.481Z,1.40
2019-02-14T22:02:26.444Z,1.30
2019-02-14T22:04:53.873Z,1.30
2019-02-14T22:07:21.659Z,1.20
2019-02-14T22:09:49.572Z,1.10
2019-02-14T22:12:16.938Z,1.20
2019-02-14T22:14:44.372Z,1.20
2019-02-14T22:17:11.674Z,1.20
2019-02-14T22:19:39.017Z,1.10
2019-02-14T22:22:06.949Z,1.10
2019-02-14T22:24:34.530Z,1.20
2019-02-14T22:27:02.253Z,1.10
2019-02-14T22:29:29.925Z,1.10
2019-02-14T22:31:57.393Z,1.10
2019-02-14T22:34:25.384Z,0.90
2019-02-14T22:36:52.381Z,1.00
2019-02-14T22:39:20.021Z,1.00
2019-02-14T22:41:47.445Z,1.10
2019-02-14T22:44:15.218Z,1.10
2019-02-14T22:46:42.666Z,1.10
2019-02-14T22:49:10.306Z,1.00
2019-02-14T22:51:37.654Z,0.90
2019-02-14T22:54:04.828Z,0.90
2019-02-14T22:56:32.532Z,1.00
2019-02-14T22:59:00.151Z,1.10
2019-02-14T23:01:27.546Z,1.20
2019-02-14T23:03:54.721Z,1.30
2019-02-14T23:06:22.602Z,1.30
2019-02-14T23:08:50.203Z,1.30
2019-02-14T23:11:17.834Z,1.30
2019-02-14T23:13:45.238Z,1.20
2019-02-14T23:16:12.697Z,1.20
2019-02-14T23:18:40.298Z,1.20
2019-02-14T23:21:07.648Z,1.00
2019-02-14T23:23:35.501Z,1.00
2019-02-14T23:26:03.037Z,1.00
2019-02-14T23:28:30.962Z,0.80
2019-02-14T23:30:58.397Z,0.90
2019-02-14T23:33:25.454Z,0.90
2019-02-14T23:35:52.641Z,0.90
2019-02-14T23:38:19.957Z,1.00
2019-02-14T23:40:47.789Z,1.00
2019-02-14T23:43:15.506Z,1.00
2019-02-14T23:45:42.931Z,1.10
2019-02-14T23:48:10.002Z,1.00
2019-02-14T23:50:37.982Z,0.90
2019-02-14T23:53:05.069Z,0.90
2019-02-14T23:55:32.660Z,0.90
2019-02-14T23:57:59.974Z,0.90
